sensor_id;sensor_type;location;lat;lon;timestamp;P1;durP1;ratioP1;P2;durP2;ratioP2
31818;SDS011;18384;48.860;9.188;2023-02-11T00:00:17;58.72;;;26.17;;
31818;SDS011;18384;48.860;9.188;2023-02-11T00:05:10;51.20;;;24.00;;
31818;SDS011;18384;48.860;9.188;2023-02-11T00:07:36;52.92;;;23.50;;
31818;SDS011;18384;48.860;9.188;2023-02-11T00:10:03;54.42;;;24.60;;
31818;SDS011;18384;48.860;9.188;2023-02-11T00:12:33;52.67;;;25.00;;
31818;SDS011;18384;48.860;9.188;2023-02-11T00:15:00;53.03;;;24.25;;
31818;SDS011;18384;48.860;9.188;2023-02-11T00:17:27;53.97;;;24.10;;
31818;SDS011;18384;48.860;9.188;2023-02-11T00:19:53;51.88;;;23.25;;
31818;SDS011;18384;48.860;9.188;2023-02-11T00:22:19;47.70;;;22.75;;
31818;SDS011;18384;48.860;9.188;2023-02-11T00:24:46;53.70;;;22.98;;
31818;SDS011;18384;48.860;9.188;2023-02-11T00:27:12;52.17;;;24.80;;
31818;SDS011;18384;48.860;9.188;2023-02-11T00:29:38;44.80;;;22.62;;
31818;SDS011;18384;48.860;9.188;2023-02-11T00:32:04;47.92;;;22.85;;
31818;SDS011;18384;48.860;9.188;2023-02-11T00:34:31;50.78;;;24.70;;
31818;SDS011;18384;48.860;9.188;2023-02-11T00:36:57;51.45;;;25.02;;
31818;SDS011;18384;48.860;9.188;2023-02-11T00:41:50;59.10;;;25.30;;
31818;SDS011;18384;48.860;9.188;2023-02-11T00:46:42;53.20;;;24.75;;
31818;SDS011;18384;48.860;9.188;2023-02-11T00:49:08;56.47;;;25.73;;
31818;SDS011;18384;48.860;9.188;2023-02-11T00:54:01;57.17;;;25.25;;
31818;SDS011;18384;48.860;9.188;2023-02-11T00:58:53;56.90;;;26.58;;
31818;SDS011;18384;48.860;9.188;2023-02-11T01:01:19;59.83;;;26.20;;
31818;SDS011;18384;48.860;9.188;2023-02-11T01:03:45;50.55;;;25.98;;
31818;SDS011;18384;48.860;9.188;2023-02-11T01:06:11;50.92;;;25.80;;
31818;SDS011;18384;48.860;9.188;2023-02-11T01:08:38;52.95;;;25.62;;
31818;SDS011;18384;48.860;9.188;2023-02-11T01:13:36;45.15;;;24.02;;
31818;SDS011;18384;48.860;9.188;2023-02-11T01:16:02;50.55;;;27.27;;
31818;SDS011;18384;48.860;9.188;2023-02-11T01:18:32;62.35;;;26.08;;
31818;SDS011;18384;48.860;9.188;2023-02-11T01:20:58;50.55;;;25.98;;
31818;SDS011;18384;48.860;9.188;2023-02-11T01:23:24;55.38;;;26.83;;
31818;SDS011;18384;48.860;9.188;2023-02-11T01:25:51;52.30;;;26.48;;
31818;SDS011;18384;48.860;9.188;2023-02-11T01:28:22;54.25;;;27.33;;
31818;SDS011;18384;48.860;9.188;2023-02-11T01:30:51;52.83;;;26.02;;
31818;SDS011;18384;48.860;9.188;2023-02-11T01:33:18;52.75;;;25.40;;
31818;SDS011;18384;48.860;9.188;2023-02-11T01:35:44;56.42;;;26.98;;
31818;SDS011;18384;48.860;9.188;2023-02-11T01:38:18;60.05;;;26.02;;
31818;SDS011;18384;48.860;9.188;2023-02-11T01:43:20;50.78;;;25.20;;
31818;SDS011;18384;48.860;9.188;2023-02-11T01:46:33;52.60;;;26.60;;
31818;SDS011;18384;48.860;9.188;2023-02-11T01:49:06;50.20;;;26.58;;
31818;SDS011;18384;48.860;9.188;2023-02-11T01:51:49;63.35;;;27.08;;
31818;SDS011;18384;48.860;9.188;2023-02-11T01:54:48;54.70;;;26.23;;
31818;SDS011;18384;48.860;9.188;2023-02-11T01:57:37;48.47;;;27.08;;
31818;SDS011;18384;48.860;9.188;2023-02-11T02:00:14;52.72;;;26.12;;
31818;SDS011;18384;48.860;9.188;2023-02-11T02:03:05;60.00;;;26.67;;
31818;SDS011;18384;48.860;9.188;2023-02-11T02:06:05;53.80;;;26.30;;
31818;SDS011;18384;48.860;9.188;2023-02-11T02:08:46;54.63;;;27.08;;
31818;SDS011;18384;48.860;9.188;2023-02-11T02:11:27;56.03;;;25.83;;
31818;SDS011;18384;48.860;9.188;2023-02-11T02:13:53;52.08;;;26.15;;
31818;SDS011;18384;48.860;9.188;2023-02-11T02:16:20;55.00;;;25.70;;
31818;SDS011;18384;48.860;9.188;2023-02-11T02:24:42;59.65;;;26.48;;
31818;SDS011;18384;48.860;9.188;2023-02-11T02:27:40;58.17;;;26.02;;
31818;SDS011;18384;48.860;9.188;2023-02-11T02:34:32;50.38;;;24.27;;
31818;SDS011;18384;48.860;9.188;2023-02-11T02:37:12;51.97;;;25.40;;
31818;SDS011;18384;48.860;9.188;2023-02-11T02:39:51;50.42;;;26.27;;
31818;SDS011;18384;48.860;9.188;2023-02-11T02:42:18;56.67;;;27.15;;
31818;SDS011;18384;48.860;9.188;2023-02-11T02:44:48;53.30;;;25.90;;
31818;SDS011;18384;48.860;9.188;2023-02-11T02:47:16;52.72;;;25.88;;
31818;SDS011;18384;48.860;9.188;2023-02-11T02:49:43;46.40;;;25.15;;
31818;SDS011;18384;48.860;9.188;2023-02-11T03:07:43;52.58;;;24.35;;
31818;SDS011;18384;48.860;9.188;2023-02-11T03:10:30;45.28;;;23.80;;
31818;SDS011;18384;48.860;9.188;2023-02-11T03:12:59;53.78;;;25.12;;
31818;SDS011;18384;48.860;9.188;2023-02-11T03:15:28;47.03;;;24.12;;
31818;SDS011;18384;48.860;9.188;2023-02-11T03:17:59;46.10;;;24.85;;
31818;SDS011;18384;48.860;9.188;2023-02-11T03:20:28;49.20;;;25.45;;
31818;SDS011;18384;48.860;9.188;2023-02-11T03:23:03;54.58;;;24.25;;
31818;SDS011;18384;48.860;9.188;2023-02-11T03:25:49;45.38;;;24.17;;
31818;SDS011;18384;48.860;9.188;2023-02-11T03:28:27;52.53;;;25.67;;
31818;SDS011;18384;48.860;9.188;2023-02-11T03:31:17;49.55;;;23.55;;
31818;SDS011;18384;48.860;9.188;2023-02-11T03:34:05;57.22;;;25.88;;
31818;SDS011;18384;48.860;9.188;2023-02-11T03:36:48;48.70;;;24.60;;
31818;SDS011;18384;48.860;9.188;2023-02-11T03:39:24;53.00;;;25.50;;
31818;SDS011;18384;48.860;9.188;2023-02-11T03:41:57;56.83;;;24.70;;
31818;SDS011;18384;48.860;9.188;2023-02-11T03:44:25;48.10;;;23.67;;
31818;SDS011;18384;48.860;9.188;2023-02-11T03:46:57;57.30;;;25.12;;
31818;SDS011;18384;48.860;9.188;2023-02-11T03:49:23;46.88;;;22.95;;
31818;SDS011;18384;48.860;9.188;2023-02-11T03:51:52;44.55;;;24.00;;
31818;SDS011;18384;48.860;9.188;2023-02-11T03:54:22;51.70;;;24.85;;
31818;SDS011;18384;48.860;9.188;2023-02-11T03:56:54;51.88;;;24.52;;
31818;SDS011;18384;48.860;9.188;2023-02-11T03:59:24;44.80;;;24.33;;
31818;SDS011;18384;48.860;9.188;2023-02-11T04:01:51;45.47;;;23.27;;
31818;SDS011;18384;48.860;9.188;2023-02-11T04:04:17;51.28;;;23.42;;
31818;SDS011;18384;48.860;9.188;2023-02-11T04:06:44;46.88;;;24.20;;
31818;SDS011;18384;48.860;9.188;2023-02-11T04:11:37;41.95;;;23.02;;
31818;SDS011;18384;48.860;9.188;2023-02-11T04:16:29;47.72;;;24.12;;
31818;SDS011;18384;48.860;9.188;2023-02-11T04:18:55;47.50;;;23.65;;
31818;SDS011;18384;48.860;9.188;2023-02-11T04:21:22;52.95;;;24.60;;
31818;SDS011;18384;48.860;9.188;2023-02-11T04:23:48;49.75;;;22.55;;
31818;SDS011;18384;48.860;9.188;2023-02-11T04:26:14;50.55;;;24.85;;
31818;SDS011;18384;48.860;9.188;2023-02-11T04:28:40;52.60;;;24.10;;
31818;SDS011;18384;48.860;9.188;2023-02-11T04:31:06;41.20;;;22.70;;
31818;SDS011;18384;48.860;9.188;2023-02-11T04:33:32;52.05;;;23.77;;
31818;SDS011;18384;48.860;9.188;2023-02-11T04:35:58;47.15;;;23.05;;
31818;SDS011;18384;48.860;9.188;2023-02-11T04:38:25;47.83;;;24.60;;
31818;SDS011;18384;48.860;9.188;2023-02-11T04:40:51;46.25;;;24.42;;
31818;SDS011;18384;48.860;9.188;2023-02-11T04:43:17;47.92;;;25.70;;
31818;SDS011;18384;48.860;9.188;2023-02-11T04:45:43;43.83;;;23.20;;
31818;SDS011;18384;48.860;9.188;2023-02-11T04:48:09;47.67;;;24.63;;
31818;SDS011;18384;48.860;9.188;2023-02-11T04:50:35;53.40;;;24.37;;
31818;SDS011;18384;48.860;9.188;2023-02-11T04:53:01;51.85;;;24.25;;
31818;SDS011;18384;48.860;9.188;2023-02-11T04:55:27;50.42;;;24.58;;
31818;SDS011;18384;48.860;9.188;2023-02-11T04:57:53;51.37;;;23.83;;
31818;SDS011;18384;48.860;9.188;2023-02-11T05:00:20;51.45;;;22.67;;
31818;SDS011;18384;48.860;9.188;2023-02-11T05:02:46;47.38;;;23.73;;
31818;SDS011;18384;48.860;9.188;2023-02-11T05:05:12;45.58;;;23.58;;
31818;SDS011;18384;48.860;9.188;2023-02-11T05:07:38;41.53;;;23.35;;
31818;SDS011;18384;48.860;9.188;2023-02-11T05:10:04;48.10;;;24.12;;
31818;SDS011;18384;48.860;9.188;2023-02-11T05:12:30;48.53;;;24.12;;
31818;SDS011;18384;48.860;9.188;2023-02-11T05:14:56;46.37;;;25.00;;
31818;SDS011;18384;48.860;9.188;2023-02-11T05:17:22;48.60;;;23.73;;
31818;SDS011;18384;48.860;9.188;2023-02-11T05:19:49;42.83;;;22.77;;
31818;SDS011;18384;48.860;9.188;2023-02-11T05:22:15;49.55;;;23.98;;
31818;SDS011;18384;48.860;9.188;2023-02-11T05:24:41;53.85;;;23.50;;
31818;SDS011;18384;48.860;9.188;2023-02-11T05:27:07;43.05;;;24.52;;
31818;SDS011;18384;48.860;9.188;2023-02-11T05:31:59;44.22;;;22.02;;
31818;SDS011;18384;48.860;9.188;2023-02-11T05:34:25;48.90;;;24.55;;
31818;SDS011;18384;48.860;9.188;2023-02-11T05:36:52;46.15;;;22.45;;
31818;SDS011;18384;48.860;9.188;2023-02-11T05:39:18;37.67;;;21.30;;
31818;SDS011;18384;48.860;9.188;2023-02-11T05:41:44;41.85;;;22.55;;
31818;SDS011;18384;48.860;9.188;2023-02-11T05:44:10;44.08;;;23.25;;
31818;SDS011;18384;48.860;9.188;2023-02-11T05:46:36;42.03;;;22.92;;
31818;SDS011;18384;48.860;9.188;2023-02-11T05:49:02;47.92;;;22.65;;
31818;SDS011;18384;48.860;9.188;2023-02-11T05:51:30;43.00;;;21.92;;
31818;SDS011;18384;48.860;9.188;2023-02-11T05:53:56;44.85;;;22.60;;
31818;SDS011;18384;48.860;9.188;2023-02-11T05:56:22;44.95;;;21.85;;
31818;SDS011;18384;48.860;9.188;2023-02-11T05:58:48;44.85;;;22.55;;
31818;SDS011;18384;48.860;9.188;2023-02-11T06:01:14;45.05;;;22.80;;
31818;SDS011;18384;48.860;9.188;2023-02-11T06:03:40;50.05;;;23.75;;
31818;SDS011;18384;48.860;9.188;2023-02-11T06:06:10;44.38;;;22.20;;
31818;SDS011;18384;48.860;9.188;2023-02-11T06:08:36;53.05;;;21.65;;
31818;SDS011;18384;48.860;9.188;2023-02-11T06:11:03;42.58;;;22.48;;
31818;SDS011;18384;48.860;9.188;2023-02-11T06:13:29;40.55;;;21.17;;
31818;SDS011;18384;48.860;9.188;2023-02-11T06:15:56;45.40;;;23.77;;
31818;SDS011;18384;48.860;9.188;2023-02-11T06:18:24;43.85;;;23.10;;
31818;SDS011;18384;48.860;9.188;2023-02-11T06:23:16;40.58;;;21.67;;
31818;SDS011;18384;48.860;9.188;2023-02-11T06:25:42;47.25;;;22.85;;
31818;SDS011;18384;48.860;9.188;2023-02-11T06:28:08;47.62;;;22.05;;
31818;SDS011;18384;48.860;9.188;2023-02-11T06:30:35;48.78;;;23.12;;
31818;SDS011;18384;48.860;9.188;2023-02-11T06:33:02;49.50;;;23.27;;
31818;SDS011;18384;48.860;9.188;2023-02-11T06:35:29;39.20;;;22.48;;
31818;SDS011;18384;48.860;9.188;2023-02-11T06:40:21;42.40;;;21.12;;
31818;SDS011;18384;48.860;9.188;2023-02-11T06:42:47;46.50;;;22.17;;
31818;SDS011;18384;48.860;9.188;2023-02-11T06:45:13;40.60;;;22.13;;
31818;SDS011;18384;48.860;9.188;2023-02-11T06:47:39;41.13;;;22.52;;
31818;SDS011;18384;48.860;9.188;2023-02-11T06:50:06;43.22;;;23.80;;
31818;SDS011;18384;48.860;9.188;2023-02-11T06:52:36;38.13;;;22.20;;
31818;SDS011;18384;48.860;9.188;2023-02-11T06:55:02;45.53;;;23.30;;
31818;SDS011;18384;48.860;9.188;2023-02-11T06:59:55;44.20;;;22.73;;
31818;SDS011;18384;48.860;9.188;2023-02-11T07:04:48;48.10;;;23.27;;
31818;SDS011;18384;48.860;9.188;2023-02-11T07:07:14;53.97;;;22.73;;
31818;SDS011;18384;48.860;9.188;2023-02-11T07:09:40;48.05;;;23.73;;
31818;SDS011;18384;48.860;9.188;2023-02-11T07:12:08;46.42;;;22.92;;
31818;SDS011;18384;48.860;9.188;2023-02-11T07:14:34;43.63;;;22.20;;
31818;SDS011;18384;48.860;9.188;2023-02-11T07:17:00;40.28;;;21.35;;
31818;SDS011;18384;48.860;9.188;2023-02-11T07:19:29;40.63;;;22.17;;
31818;SDS011;18384;48.860;9.188;2023-02-11T07:21:55;36.80;;;22.85;;
31818;SDS011;18384;48.860;9.188;2023-02-11T07:24:21;44.72;;;22.65;;
31818;SDS011;18384;48.860;9.188;2023-02-11T07:26:47;47.58;;;23.58;;
31818;SDS011;18384;48.860;9.188;2023-02-11T07:29:13;48.20;;;22.67;;
31818;SDS011;18384;48.860;9.188;2023-02-11T07:31:39;49.58;;;23.38;;
31818;SDS011;18384;48.860;9.188;2023-02-11T07:34:05;43.95;;;22.58;;
31818;SDS011;18384;48.860;9.188;2023-02-11T07:36:31;42.08;;;22.80;;
31818;SDS011;18384;48.860;9.188;2023-02-11T07:38:58;41.13;;;22.05;;
31818;SDS011;18384;48.860;9.188;2023-02-11T07:43:51;42.38;;;22.80;;
31818;SDS011;18384;48.860;9.188;2023-02-11T07:46:26;37.40;;;22.35;;
31818;SDS011;18384;48.860;9.188;2023-02-11T07:48:53;42.25;;;22.95;;
31818;SDS011;18384;48.860;9.188;2023-02-11T07:51:21;47.67;;;23.98;;
31818;SDS011;18384;48.860;9.188;2023-02-11T07:53:53;45.53;;;23.42;;
31818;SDS011;18384;48.860;9.188;2023-02-11T07:56:21;47.20;;;23.25;;
31818;SDS011;18384;48.860;9.188;2023-02-11T07:58:48;38.33;;;21.73;;
31818;SDS011;18384;48.860;9.188;2023-02-11T08:01:17;39.38;;;21.60;;
31818;SDS011;18384;48.860;9.188;2023-02-11T08:03:49;47.38;;;22.83;;
31818;SDS011;18384;48.860;9.188;2023-02-11T08:06:17;41.00;;;22.40;;
31818;SDS011;18384;48.860;9.188;2023-02-11T08:08:45;47.03;;;21.40;;
31818;SDS011;18384;48.860;9.188;2023-02-11T08:11:12;40.22;;;20.70;;
31818;SDS011;18384;48.860;9.188;2023-02-11T08:13:50;40.45;;;21.10;;
31818;SDS011;18384;48.860;9.188;2023-02-11T08:16:27;37.80;;;20.45;;
31818;SDS011;18384;48.860;9.188;2023-02-11T08:19:02;45.53;;;21.15;;
31818;SDS011;18384;48.860;9.188;2023-02-11T08:21:32;41.15;;;22.13;;
31818;SDS011;18384;48.860;9.188;2023-02-11T08:23:59;42.47;;;21.12;;
31818;SDS011;18384;48.860;9.188;2023-02-11T08:26:27;43.15;;;22.00;;
31818;SDS011;18384;48.860;9.188;2023-02-11T08:28:56;48.63;;;23.95;;
31818;SDS011;18384;48.860;9.188;2023-02-11T08:31:24;46.42;;;21.83;;
31818;SDS011;18384;48.860;9.188;2023-02-11T08:33:53;51.00;;;26.55;;
31818;SDS011;18384;48.860;9.188;2023-02-11T08:36:23;47.47;;;23.52;;
31818;SDS011;18384;48.860;9.188;2023-02-11T08:38:56;40.92;;;21.48;;
31818;SDS011;18384;48.860;9.188;2023-02-11T08:41:32;46.63;;;21.60;;
31818;SDS011;18384;48.860;9.188;2023-02-11T08:43:59;41.92;;;20.67;;
31818;SDS011;18384;48.860;9.188;2023-02-11T08:46:26;39.78;;;22.15;;
31818;SDS011;18384;48.860;9.188;2023-02-11T08:48:52;41.78;;;20.98;;
31818;SDS011;18384;48.860;9.188;2023-02-11T08:53:47;38.60;;;21.35;;
31818;SDS011;18384;48.860;9.188;2023-02-11T08:56:14;40.05;;;20.20;;
31818;SDS011;18384;48.860;9.188;2023-02-11T08:58:43;35.45;;;20.65;;
31818;SDS011;18384;48.860;9.188;2023-02-11T09:01:13;46.08;;;20.98;;
31818;SDS011;18384;48.860;9.188;2023-02-11T09:03:46;38.70;;;20.50;;
31818;SDS011;18384;48.860;9.188;2023-02-11T09:06:14;45.53;;;21.30;;
31818;SDS011;18384;48.860;9.188;2023-02-11T09:08:42;40.22;;;21.52;;
31818;SDS011;18384;48.860;9.188;2023-02-11T09:11:11;36.78;;;20.05;;
31818;SDS011;18384;48.860;9.188;2023-02-11T09:13:39;38.47;;;20.98;;
31818;SDS011;18384;48.860;9.188;2023-02-11T09:16:07;40.72;;;19.92;;
31818;SDS011;18384;48.860;9.188;2023-02-11T09:18:38;38.80;;;22.33;;
31818;SDS011;18384;48.860;9.188;2023-02-11T09:21:05;38.33;;;20.33;;
31818;SDS011;18384;48.860;9.188;2023-02-11T09:23:33;39.20;;;20.23;;
31818;SDS011;18384;48.860;9.188;2023-02-11T09:26:22;40.33;;;20.08;;
31818;SDS011;18384;48.860;9.188;2023-02-11T09:28:51;41.47;;;21.23;;
31818;SDS011;18384;48.860;9.188;2023-02-11T09:31:19;40.22;;;21.35;;
31818;SDS011;18384;48.860;9.188;2023-02-11T09:33:50;39.25;;;19.90;;
31818;SDS011;18384;48.860;9.188;2023-02-11T09:36:21;40.45;;;20.25;;
31818;SDS011;18384;48.860;9.188;2023-02-11T09:38:50;41.03;;;20.05;;
31818;SDS011;18384;48.860;9.188;2023-02-11T09:41:23;32.58;;;18.65;;
31818;SDS011;18384;48.860;9.188;2023-02-11T09:44:07;42.58;;;21.60;;
31818;SDS011;18384;48.860;9.188;2023-02-11T09:46:46;34.83;;;19.73;;
31818;SDS011;18384;48.860;9.188;2023-02-11T09:49:25;36.72;;;20.40;;
31818;SDS011;18384;48.860;9.188;2023-02-11T09:52:10;35.58;;;19.35;;
31818;SDS011;18384;48.860;9.188;2023-02-11T09:55:56;38.65;;;18.65;;
31818;SDS011;18384;48.860;9.188;2023-02-11T09:58:35;36.03;;;19.80;;
31818;SDS011;18384;48.860;9.188;2023-02-11T10:01:22;38.75;;;18.35;;
31818;SDS011;18384;48.860;9.188;2023-02-11T10:04:35;30.35;;;17.60;;
31818;SDS011;18384;48.860;9.188;2023-02-11T10:11:22;32.10;;;17.33;;
31818;SDS011;18384;48.860;9.188;2023-02-11T10:20:37;40.42;;;19.52;;
31818;SDS011;18384;48.860;9.188;2023-02-11T10:26:14;36.65;;;18.80;;
31818;SDS011;18384;48.860;9.188;2023-02-11T10:28:49;37.20;;;18.80;;
31818;SDS011;18384;48.860;9.188;2023-02-11T10:31:33;35.85;;;18.02;;
31818;SDS011;18384;48.860;9.188;2023-02-11T10:34:05;21.62;;;10.65;;
31818;SDS011;18384;48.860;9.188;2023-02-11T10:36:37;14.40;;;6.97;;
31818;SDS011;18384;48.860;9.188;2023-02-11T10:39:12;10.38;;;6.85;;
31818;SDS011;18384;48.860;9.188;2023-02-11T10:41:45;11.90;;;6.53;;
31818;SDS011;18384;48.860;9.188;2023-02-11T10:44:26;12.18;;;6.70;;
31818;SDS011;18384;48.860;9.188;2023-02-11T10:46:58;14.87;;;7.10;;
31818;SDS011;18384;48.860;9.188;2023-02-11T10:49:43;14.00;;;7.18;;
31818;SDS011;18384;48.860;9.188;2023-02-11T10:52:24;13.38;;;7.10;;
31818;SDS011;18384;48.860;9.188;2023-02-11T10:58:43;11.75;;;6.32;;
31818;SDS011;18384;48.860;9.188;2023-02-11T11:20:38;13.75;;;7.53;;
31818;SDS011;18384;48.860;9.188;2023-02-11T11:23:23;12.95;;;6.78;;
31818;SDS011;18384;48.860;9.188;2023-02-11T11:26:04;12.52;;;7.37;;
31818;SDS011;18384;48.860;9.188;2023-02-11T11:28:56;22.67;;;8.37;;
31818;SDS011;18384;48.860;9.188;2023-02-11T11:31:33;13.75;;;8.10;;
31818;SDS011;18384;48.860;9.188;2023-02-11T11:34:26;15.88;;;8.77;;
31818;SDS011;18384;48.860;9.188;2023-02-11T11:36:59;16.37;;;8.40;;
31818;SDS011;18384;48.860;9.188;2023-02-11T11:39:39;15.57;;;7.78;;
31818;SDS011;18384;48.860;9.188;2023-02-11T11:42:21;17.15;;;8.77;;
31818;SDS011;18384;48.860;9.188;2023-02-11T11:45:02;16.67;;;8.38;;
31818;SDS011;18384;48.860;9.188;2023-02-11T11:51:01;20.87;;;9.10;;
31818;SDS011;18384;48.860;9.188;2023-02-11T11:53:38;19.37;;;8.55;;
31818;SDS011;18384;48.860;9.188;2023-02-11T11:56:25;17.23;;;9.18;;
31818;SDS011;18384;48.860;9.188;2023-02-11T11:58:59;15.77;;;8.73;;
31818;SDS011;18384;48.860;9.188;2023-02-11T12:01:46;15.30;;;8.88;;
31818;SDS011;18384;48.860;9.188;2023-02-11T12:06:38;13.77;;;7.93;;
31818;SDS011;18384;48.860;9.188;2023-02-11T12:17:48;14.18;;;8.45;;
31818;SDS011;18384;48.860;9.188;2023-02-11T12:20:54;15.32;;;7.43;;
31818;SDS011;18384;48.860;9.188;2023-02-11T12:24:06;16.60;;;8.07;;
31818;SDS011;18384;48.860;9.188;2023-02-11T12:28:19;22.62;;;9.25;;
31818;SDS011;18384;48.860;9.188;2023-02-11T12:31:26;17.87;;;9.60;;
31818;SDS011;18384;48.860;9.188;2023-02-11T12:36:43;19.80;;;10.50;;
31818;SDS011;18384;48.860;9.188;2023-02-11T12:40:08;19.62;;;9.85;;
31818;SDS011;18384;48.860;9.188;2023-02-11T12:42:49;25.17;;;11.12;;
31818;SDS011;18384;48.860;9.188;2023-02-11T12:57:21;25.10;;;12.73;;
31818;SDS011;18384;48.860;9.188;2023-02-11T13:01:18;27.90;;;11.82;;
31818;SDS011;18384;48.860;9.188;2023-02-11T13:04:00;23.12;;;12.20;;
31818;SDS011;18384;48.860;9.188;2023-02-11T13:07:22;27.40;;;14.18;;
31818;SDS011;18384;48.860;9.188;2023-02-11T13:10:15;27.67;;;14.43;;
31818;SDS011;18384;48.860;9.188;2023-02-11T13:13:11;28.20;;;14.70;;
31818;SDS011;18384;48.860;9.188;2023-02-11T13:15:47;23.45;;;13.77;;
31818;SDS011;18384;48.860;9.188;2023-02-11T13:18:26;31.62;;;14.55;;
31818;SDS011;18384;48.860;9.188;2023-02-11T13:30:50;28.98;;;13.73;;
31818;SDS011;18384;48.860;9.188;2023-02-11T13:33:29;26.92;;;13.20;;
31818;SDS011;18384;48.860;9.188;2023-02-11T13:36:12;28.05;;;14.32;;
31818;SDS011;18384;48.860;9.188;2023-02-11T13:38:58;29.83;;;15.23;;
31818;SDS011;18384;48.860;9.188;2023-02-11T13:41:33;26.70;;;15.10;;
31818;SDS011;18384;48.860;9.188;2023-02-11T13:44:16;29.45;;;15.85;;
31818;SDS011;18384;48.860;9.188;2023-02-11T13:47:05;31.12;;;15.40;;
31818;SDS011;18384;48.860;9.188;2023-02-11T13:49:33;29.55;;;14.45;;
31818;SDS011;18384;48.860;9.188;2023-02-11T13:52:05;28.95;;;14.13;;
31818;SDS011;18384;48.860;9.188;2023-02-11T13:54:50;28.35;;;14.05;;
31818;SDS011;18384;48.860;9.188;2023-02-11T13:57:25;32.88;;;16.02;;
31818;SDS011;18384;48.860;9.188;2023-02-11T14:00:01;26.27;;;13.93;;
31818;SDS011;18384;48.860;9.188;2023-02-11T14:03:20;28.58;;;14.40;;
31818;SDS011;18384;48.860;9.188;2023-02-11T14:06:14;30.92;;;14.45;;
31818;SDS011;18384;48.860;9.188;2023-02-11T14:11:45;27.23;;;15.00;;
31818;SDS011;18384;48.860;9.188;2023-02-11T14:14:24;33.10;;;15.43;;
31818;SDS011;18384;48.860;9.188;2023-02-11T14:19:55;29.92;;;15.48;;
31818;SDS011;18384;48.860;9.188;2023-02-11T14:22:23;32.22;;;15.05;;
31818;SDS011;18384;48.860;9.188;2023-02-11T14:25:02;28.30;;;14.13;;
31818;SDS011;18384;48.860;9.188;2023-02-11T14:27:47;34.42;;;14.35;;
31818;SDS011;18384;48.860;9.188;2023-02-11T14:30:44;28.98;;;14.75;;
31818;SDS011;18384;48.860;9.188;2023-02-11T14:37:48;26.85;;;14.60;;
31818;SDS011;18384;48.860;9.188;2023-02-11T14:47:40;24.73;;;13.45;;
31818;SDS011;18384;48.860;9.188;2023-02-11T14:50:16;23.15;;;12.20;;
31818;SDS011;18384;48.860;9.188;2023-02-11T14:52:53;23.55;;;12.98;;
31818;SDS011;18384;48.860;9.188;2023-02-11T14:55:27;25.15;;;12.82;;
31818;SDS011;18384;48.860;9.188;2023-02-11T14:58:31;24.37;;;12.02;;
31818;SDS011;18384;48.860;9.188;2023-02-11T15:00:59;25.12;;;12.35;;
31818;SDS011;18384;48.860;9.188;2023-02-11T15:04:03;27.25;;;12.55;;
31818;SDS011;18384;48.860;9.188;2023-02-11T15:06:51;24.02;;;12.65;;
31818;SDS011;18384;48.860;9.188;2023-02-11T15:10:02;26.15;;;13.15;;
31818;SDS011;18384;48.860;9.188;2023-02-11T15:14:55;21.50;;;13.50;;
31818;SDS011;18384;48.860;9.188;2023-02-11T15:17:28;23.15;;;13.00;;
31818;SDS011;18384;48.860;9.188;2023-02-11T15:19:59;21.27;;;12.82;;
31818;SDS011;18384;48.860;9.188;2023-02-11T15:22:31;23.50;;;12.90;;
31818;SDS011;18384;48.860;9.188;2023-02-11T15:25:07;24.12;;;11.88;;
31818;SDS011;18384;48.860;9.188;2023-02-11T15:27:41;28.92;;;13.65;;
31818;SDS011;18384;48.860;9.188;2023-02-11T15:30:22;20.15;;;12.90;;
31818;SDS011;18384;48.860;9.188;2023-02-11T15:32:56;22.92;;;13.48;;
31818;SDS011;18384;48.860;9.188;2023-02-11T15:35:34;23.77;;;13.32;;
31818;SDS011;18384;48.860;9.188;2023-02-11T15:38:05;24.45;;;13.02;;
31818;SDS011;18384;48.860;9.188;2023-02-11T15:40:34;31.42;;;13.98;;
31818;SDS011;18384;48.860;9.188;2023-02-11T15:43:02;22.83;;;12.88;;
31818;SDS011;18384;48.860;9.188;2023-02-11T15:45:41;27.13;;;13.23;;
31818;SDS011;18384;48.860;9.188;2023-02-11T15:48:31;20.05;;;12.85;;
31818;SDS011;18384;48.860;9.188;2023-02-11T15:51:26;23.83;;;13.20;;
31818;SDS011;18384;48.860;9.188;2023-02-11T15:54:01;27.37;;;13.80;;
31818;SDS011;18384;48.860;9.188;2023-02-11T15:56:40;22.65;;;13.45;;
31818;SDS011;18384;48.860;9.188;2023-02-11T15:59:16;25.77;;;13.38;;
31818;SDS011;18384;48.860;9.188;2023-02-11T16:01:52;26.73;;;14.68;;
31818;SDS011;18384;48.860;9.188;2023-02-11T16:04:20;26.12;;;14.00;;
31818;SDS011;18384;48.860;9.188;2023-02-11T16:06:49;27.65;;;15.57;;
31818;SDS011;18384;48.860;9.188;2023-02-11T16:09:23;26.15;;;14.20;;
31818;SDS011;18384;48.860;9.188;2023-02-11T16:12:01;28.25;;;14.30;;
31818;SDS011;18384;48.860;9.188;2023-02-11T16:14:53;24.95;;;14.98;;
31818;SDS011;18384;48.860;9.188;2023-02-11T16:17:25;27.92;;;14.73;;
31818;SDS011;18384;48.860;9.188;2023-02-11T16:19:53;26.65;;;15.10;;
31818;SDS011;18384;48.860;9.188;2023-02-11T16:24:52;29.15;;;15.75;;
31818;SDS011;18384;48.860;9.188;2023-02-11T16:27:26;28.55;;;15.90;;
31818;SDS011;18384;48.860;9.188;2023-02-11T16:30:05;30.15;;;16.27;;
31818;SDS011;18384;48.860;9.188;2023-02-11T16:32:54;28.80;;;15.68;;
31818;SDS011;18384;48.860;9.188;2023-02-11T16:35:20;37.83;;;18.75;;
31818;SDS011;18384;48.860;9.188;2023-02-11T16:37:46;36.72;;;18.10;;
31818;SDS011;18384;48.860;9.188;2023-02-11T16:40:12;33.33;;;17.67;;
31818;SDS011;18384;48.860;9.188;2023-02-11T16:42:39;33.25;;;18.48;;
31818;SDS011;18384;48.860;9.188;2023-02-11T16:45:05;31.15;;;17.62;;
31818;SDS011;18384;48.860;9.188;2023-02-11T16:47:31;32.42;;;17.37;;
31818;SDS011;18384;48.860;9.188;2023-02-11T16:49:59;32.05;;;17.12;;
31818;SDS011;18384;48.860;9.188;2023-02-11T16:52:27;27.80;;;16.85;;
31818;SDS011;18384;48.860;9.188;2023-02-11T16:54:55;29.48;;;16.17;;
31818;SDS011;18384;48.860;9.188;2023-02-11T16:57:23;29.85;;;16.37;;
31818;SDS011;18384;48.860;9.188;2023-02-11T16:59:51;30.02;;;16.15;;
31818;SDS011;18384;48.860;9.188;2023-02-11T17:02:22;35.53;;;17.48;;
31818;SDS011;18384;48.860;9.188;2023-02-11T17:04:52;30.52;;;16.55;;
31818;SDS011;18384;48.860;9.188;2023-02-11T17:07:19;30.20;;;17.30;;
31818;SDS011;18384;48.860;9.188;2023-02-11T17:09:46;26.60;;;16.65;;
31818;SDS011;18384;48.860;9.188;2023-02-11T17:12:12;34.80;;;17.73;;
31818;SDS011;18384;48.860;9.188;2023-02-11T17:14:38;28.58;;;16.92;;
31818;SDS011;18384;48.860;9.188;2023-02-11T17:19:30;28.42;;;15.80;;
31818;SDS011;18384;48.860;9.188;2023-02-11T17:21:56;27.25;;;17.40;;
31818;SDS011;18384;48.860;9.188;2023-02-11T17:24:23;27.75;;;16.05;;
31818;SDS011;18384;48.860;9.188;2023-02-11T17:26:49;33.10;;;17.33;;
31818;SDS011;18384;48.860;9.188;2023-02-11T17:29:16;29.40;;;17.20;;
31818;SDS011;18384;48.860;9.188;2023-02-11T17:31:46;30.62;;;17.55;;
31818;SDS011;18384;48.860;9.188;2023-02-11T17:34:12;30.62;;;17.48;;
31818;SDS011;18384;48.860;9.188;2023-02-11T17:36:38;37.53;;;20.83;;
31818;SDS011;18384;48.860;9.188;2023-02-11T17:39:05;35.45;;;20.02;;
31818;SDS011;18384;48.860;9.188;2023-02-11T17:43:58;69.95;;;21.12;;
31818;SDS011;18384;48.860;9.188;2023-02-11T17:46:25;51.00;;;20.23;;
31818;SDS011;18384;48.860;9.188;2023-02-11T17:48:54;35.92;;;21.05;;